createdAt,value
2022-08-28T00:00:40.350Z,22.50
2022-08-28T00:03:07.513Z,22.40
2022-08-28T00:05:34.602Z,22.40
2022-08-28T00:08:01.591Z,22.40
2022-08-28T00:10:29.063Z,22.40
2022-08-28T00:12:57.878Z,22.40
2022-08-28T00:15:30.170Z,22.40
2022-08-28T00:17:57.801Z,22.40
2022-08-28T00:20:25.749Z,22.20
2022-08-28T00:22:55.552Z,22.20
2022-08-28T00:25:25.524Z,22.30
2022-08-28T00:27:57.538Z,22.30
2022-08-28T00:30:31.038Z,22.30
2022-08-28T00:33:04.021Z,22.20
2022-08-28T00:35:30.807Z,22.00
2022-08-28T00:37:58.110Z,21.60
2022-08-28T00:40:30.531Z,21.70
2022-08-28T00:43:02.402Z,21.60
2022-08-28T00:45:30.791Z,21.40
2022-08-28T00:47:58.564Z,21.00
2022-08-28T00:50:28.898Z,20.90
2022-08-28T00:53:00.656Z,20.60
2022-08-28T00:55:29.119Z,20.50
2022-08-28T00:57:59.543Z,20.80
2022-08-28T01:00:36.454Z,21.00
2022-08-28T01:03:05.714Z,21.10
2022-08-28T01:05:35.913Z,21.00
2022-08-28T01:08:06.335Z,21.10
2022-08-28T01:10:34.889Z,21.00
2022-08-28T01:13:02.864Z,21.00
2022-08-28T01:15:33.948Z,21.00
2022-08-28T01:18:08.255Z,20.90
2022-08-28T01:20:41.936Z,21.00
2022-08-28T01:23:46.360Z,21.00
2022-08-28T01:26:13.361Z,21.30
2022-08-28T01:28:41.023Z,21.40
2022-08-28T01:31:11.589Z,21.40
2022-08-28T01:33:42.518Z,21.40
2022-08-28T01:36:12.131Z,21.30
2022-08-28T01:38:40.520Z,21.20
2022-08-28T01:41:07.929Z,21.00
2022-08-28T01:43:35.329Z,20.60
2022-08-28T01:46:05.929Z,20.30
2022-08-28T01:48:36.365Z,20.10
2022-08-28T01:51:05.604Z,19.90
2022-08-28T01:53:33.573Z,19.90
2022-08-28T01:56:02.786Z,20.00
2022-08-28T01:58:37.398Z,20.10
2022-08-28T02:01:09.819Z,20.10
2022-08-28T02:03:37.073Z,20.10
2022-08-28T02:06:04.302Z,20.00
2022-08-28T02:08:31.303Z,19.70
2022-08-28T02:10:58.215Z,19.80
2022-08-28T02:13:25.672Z,20.10
2022-08-28T02:15:52.886Z,20.20
2022-08-28T02:18:20.481Z,20.20
2022-08-28T02:20:47.492Z,19.90
2022-08-28T02:23:14.963Z,19.70
2022-08-28T02:25:42.152Z,19.50
2022-08-28T02:28:09.287Z,19.50
2022-08-28T02:30:37.248Z,19.50
2022-08-28T02:33:04.576Z,19.60
2022-08-28T02:35:31.652Z,19.80
2022-08-28T02:38:00.544Z,20.00
2022-08-28T02:40:27.887Z,20.10
2022-08-28T02:42:54.918Z,19.80
2022-08-28T02:45:21.931Z,19.70
2022-08-28T02:47:52.551Z,19.50
2022-08-28T02:50:20.354Z,19.60
2022-08-28T02:52:48.037Z,19.70
2022-08-28T02:55:17.451Z,19.90
2022-08-28T02:57:45.616Z,19.90
2022-08-28T03:00:16.980Z,19.70
2022-08-28T03:02:45.678Z,19.60
2022-08-28T03:05:14.358Z,19.50
2022-08-28T03:07:42.758Z,19.60
2022-08-28T03:10:10.401Z,19.70
2022-08-28T03:12:38.387Z,19.60
2022-08-28T03:15:07.745Z,19.60
2022-08-28T03:17:36.978Z,19.70
2022-08-28T03:20:09.187Z,19.70
2022-08-28T03:22:54.537Z,19.80
2022-08-28T03:25:22.549Z,19.90
2022-08-28T03:27:49.731Z,19.90
2022-08-28T03:30:17.274Z,19.90
2022-08-28T03:32:44.269Z,19.80
2022-08-28T03:35:12.100Z,19.70
2022-08-28T03:37:39.350Z,19.80
2022-08-28T03:40:08.834Z,19.70
2022-08-28T03:42:36.159Z,19.70
2022-08-28T03:45:05.425Z,19.80
2022-08-28T03:47:32.687Z,19.80
2022-08-28T03:50:00.459Z,19.60
2022-08-28T03:52:27.396Z,19.50
2022-08-28T03:54:54.510Z,19.80
2022-08-28T03:57:22.813Z,19.70
2022-08-28T03:59:52.219Z,19.60
2022-08-28T04:02:20.698Z,19.30
2022-08-28T04:04:51.459Z,19.60
2022-08-28T04:07:19.717Z,19.60
2022-08-28T04:09:47.255Z,19.60
2022-08-28T04:12:15.246Z,19.50
2022-08-28T04:14:42.453Z,19.30
2022-08-28T04:17:10.252Z,19.40
2022-08-28T04:19:38.145Z,19.60
2022-08-28T04:22:05.126Z,19.80
2022-08-28T04:24:32.197Z,19.90
2022-08-28T04:26:59.178Z,19.80
2022-08-28T04:29:26.198Z,19.40
2022-08-28T04:31:53.587Z,19.30
2022-08-28T04:34:20.578Z,19.30
2022-08-28T04:36:51.380Z,19.60
2022-08-28T04:39:18.323Z,19.50
2022-08-28T04:41:45.617Z,19.50
2022-08-28T04:44:12.709Z,19.40
2022-08-28T04:46:39.711Z,19.40
2022-08-28T04:49:07.111Z,19.60
2022-08-28T04:51:35.424Z,19.80
2022-08-28T04:54:03.927Z,19.90
2022-08-28T04:56:30.878Z,20.10
2022-08-28T04:58:57.774Z,20.20
2022-08-28T05:01:25.386Z,20.30
2022-08-28T05:03:57.994Z,20.20
2022-08-28T05:06:28.947Z,20.30
2022-08-28T05:08:58.018Z,20.40
2022-08-28T05:11:33.226Z,20.50
2022-08-28T05:14:06.818Z,20.50
2022-08-28T05:16:39.936Z,20.60
2022-08-28T05:19:06.944Z,20.80
2022-08-28T05:21:33.824Z,20.90
2022-08-28T05:24:01.060Z,20.90
2022-08-28T05:26:29.936Z,21.00
2022-08-28T05:28:58.241Z,21.10
2022-08-28T05:31:26.383Z,21.10
2022-08-28T05:33:54.392Z,21.20
2022-08-28T05:36:23.092Z,21.40
2022-08-28T05:38:57.648Z,21.50
2022-08-28T05:41:27.510Z,21.60
2022-08-28T05:43:54.416Z,21.70
2022-08-28T05:46:23.318Z,21.80
2022-08-28T05:48:50.229Z,21.90
2022-08-28T05:51:22.374Z,21.90
2022-08-28T05:53:50.111Z,22.10
2022-08-28T05:56:23.599Z,22.10
2022-08-28T05:58:50.941Z,22.10
2022-08-28T06:01:21.860Z,22.30
2022-08-28T06:03:58.227Z,22.50
2022-08-28T06:06:26.902Z,22.60
2022-08-28T06:09:01.747Z,22.60
2022-08-28T06:11:30.548Z,22.60
2022-08-28T06:14:01.565Z,22.70
2022-08-28T06:16:29.637Z,22.90
2022-08-28T06:18:57.732Z,23.00
2022-08-28T06:21:25.051Z,23.10
2022-08-28T06:23:52.212Z,23.10
2022-08-28T06:26:19.208Z,23.20
2022-08-28T06:28:46.263Z,23.30
2022-08-28T06:31:23.474Z,23.30
2022-08-28T06:33:56.104Z,23.50
2022-08-28T06:36:24.164Z,23.50
2022-08-28T06:38:51.402Z,23.60
2022-08-28T06:41:19.291Z,23.70
2022-08-28T06:43:46.233Z,23.90
2022-08-28T06:46:13.484Z,24.20
2022-08-28T06:48:40.477Z,24.50
2022-08-28T06:51:09.607Z,24.80
2022-08-28T06:53:38.662Z,25.20
2022-08-28T06:56:26.290Z,25.50
2022-08-28T06:58:55.475Z,25.80
2022-08-28T07:01:31.444Z,26.20
2022-08-28T07:04:01.277Z,26.10
2022-08-28T07:06:34.610Z,26.60
2022-08-28T07:09:03.130Z,27.00
2022-08-28T07:11:32.088Z,27.20
2022-08-28T07:13:59.765Z,27.30
2022-08-28T07:16:30.044Z,27.90
2022-08-28T07:18:57.492Z,28.10
2022-08-28T07:21:24.644Z,28.90
2022-08-28T07:23:51.836Z,29.30
2022-08-28T07:26:22.588Z,29.40
2022-08-28T07:28:50.804Z,29.60
2022-08-28T07:31:26.316Z,28.70
2022-08-28T07:33:55.162Z,28.50
2022-08-28T07:36:29.349Z,29.60
2022-08-28T07:38:59.109Z,29.30
2022-08-28T07:41:29.012Z,28.80
2022-08-28T07:44:14.314Z,29.20
2022-08-28T07:46:42.013Z,29.90
2022-08-28T07:49:09.731Z,30.00
2022-08-28T07:51:37.109Z,30.00
2022-08-28T07:54:05.369Z,30.00
2022-08-28T07:56:33.178Z,30.50
2022-08-28T07:59:01.660Z,30.10
2022-08-28T08:01:30.705Z,30.50
2022-08-28T08:04:01.125Z,30.80
2022-08-28T08:06:34.296Z,30.80
2022-08-28T08:09:02.425Z,31.10
2022-08-28T08:11:32.626Z,31.10
2022-08-28T08:14:04.714Z,30.70
2022-08-28T08:16:34.604Z,31.20
2022-08-28T08:19:02.463Z,31.10
2022-08-28T08:21:30.384Z,31.10
2022-08-28T08:24:00.606Z,31.50
2022-08-28T08:26:28.449Z,31.40
2022-08-28T08:28:56.592Z,31.70
2022-08-28T08:31:33.487Z,32.40
2022-08-28T08:34:04.791Z,32.30
2022-08-28T08:36:34.073Z,31.90
2022-08-28T08:39:01.918Z,32.00
2022-08-28T08:42:26.805Z,31.60
2022-08-28T08:44:56.495Z,32.70
2022-08-28T08:47:47.309Z,32.10
2022-08-28T08:50:22.091Z,32.70
2022-08-28T08:53:10.334Z,32.70
2022-08-28T08:55:45.318Z,32.90
2022-08-28T08:58:25.636Z,32.90
2022-08-28T09:01:23.436Z,33.50
2022-08-28T09:04:00.655Z,34.00
2022-08-28T09:06:39.737Z,33.40
2022-08-28T09:09:16.814Z,33.30
2022-08-28T09:12:03.872Z,33.40
2022-08-28T09:14:57.789Z,33.40
2022-08-28T09:17:34.880Z,33.30
2022-08-28T09:20:02.007Z,34.20
2022-08-28T09:22:28.932Z,33.60
2022-08-28T09:24:55.973Z,33.90
2022-08-28T09:27:29.104Z,34.00
2022-08-28T09:29:57.934Z,34.30
2022-08-28T09:32:35.487Z,34.00
2022-08-28T09:35:27.965Z,33.70
2022-08-28T09:37:56.426Z,34.10
2022-08-28T09:40:47.762Z,34.40
2022-08-28T09:43:28.208Z,35.40
2022-08-28T09:46:03.308Z,35.40
2022-08-28T09:48:39.121Z,35.20
2022-08-28T09:51:10.388Z,35.70
2022-08-28T09:53:44.250Z,34.90
2022-08-28T09:56:34.299Z,35.00
2022-08-28T09:59:10.714Z,35.80
2022-08-28T10:01:45.096Z,36.00
2022-08-28T10:04:24.612Z,34.60
2022-08-28T10:07:14.328Z,35.60
2022-08-28T10:10:17.639Z,34.10
2022-08-28T10:13:20.406Z,35.20
2022-08-28T10:16:09.906Z,34.70
2022-08-28T10:18:51.978Z,35.40
2022-08-28T10:21:19.010Z,35.10
2022-08-28T10:24:10.821Z,35.50
2022-08-28T10:26:44.062Z,35.90
2022-08-28T10:29:31.749Z,37.10
2022-08-28T10:32:04.340Z,37.00
2022-08-28T10:34:48.756Z,37.00
2022-08-28T10:37:48.519Z,38.00
2022-08-28T10:40:25.457Z,37.70
2022-08-28T10:43:07.507Z,37.70
2022-08-28T10:45:35.052Z,38.60
2022-08-28T10:48:10.796Z,38.10
2022-08-28T10:50:52.784Z,38.50
2022-08-28T10:53:39.129Z,38.50
2022-08-28T10:56:19.638Z,38.50
2022-08-28T10:58:49.934Z,38.70
2022-08-28T11:01:30.900Z,38.70
2022-08-28T11:04:01.179Z,38.40
2022-08-28T11:06:30.796Z,38.90
2022-08-28T11:09:20.617Z,39.00
2022-08-28T11:11:49.343Z,38.50
2022-08-28T11:14:47.823Z,37.10
2022-08-28T11:17:30.597Z,36.50
2022-08-28T11:20:27.182Z,38.10
2022-08-28T11:23:10.507Z,40.00
2022-08-28T11:25:46.528Z,39.60
2022-08-28T11:28:17.673Z,37.10
2022-08-28T11:30:47.295Z,36.90
2022-08-28T11:33:38.191Z,38.20
2022-08-28T11:36:09.800Z,39.90
2022-08-28T11:38:42.611Z,40.70
2022-08-28T11:41:17.675Z,37.10
2022-08-28T11:43:46.658Z,37.80
2022-08-28T11:46:19.921Z,38.60
2022-08-28T11:48:54.894Z,39.80
2022-08-28T11:51:39.876Z,39.20
2022-08-28T11:54:28.590Z,40.10
2022-08-28T11:57:01.672Z,39.20
2022-08-28T11:59:52.846Z,39.00
2022-08-28T12:02:39.163Z,37.60
2022-08-28T12:05:07.988Z,37.00
2022-08-28T12:07:37.924Z,37.20
2022-08-28T12:10:27.637Z,37.20
2022-08-28T12:13:07.516Z,37.80
2022-08-28T12:15:34.530Z,38.00
2022-08-28T12:18:34.615Z,38.00
2022-08-28T12:21:04.778Z,38.20
2022-08-28T12:24:14.772Z,37.70
2022-08-28T12:26:50.244Z,38.90
2022-08-28T12:29:33.245Z,38.80
2022-08-28T12:32:37.271Z,37.50
2022-08-28T12:35:16.650Z,36.20
2022-08-28T12:37:54.482Z,37.50
2022-08-28T12:40:24.808Z,37.20
2022-08-28T12:43:02.529Z,37.30
2022-08-28T12:45:37.978Z,37.80
2022-08-28T12:48:21.234Z,37.70
2022-08-28T12:50:56.189Z,38.00
2022-08-28T12:53:25.611Z,39.00
2022-08-28T12:55:54.182Z,38.10
2022-08-28T12:58:36.686Z,38.00
2022-08-28T13:01:13.652Z,37.60
2022-08-28T13:03:51.622Z,36.50
2022-08-28T13:06:28.991Z,36.40
2022-08-28T13:09:14.326Z,36.30
2022-08-28T13:11:46.729Z,36.00
2022-08-28T13:14:13.678Z,35.60
2022-08-28T13:16:44.875Z,36.10
2022-08-28T13:19:29.391Z,35.40
2022-08-28T13:22:01.864Z,35.40
2022-08-28T13:24:28.845Z,35.20
2022-08-28T13:27:14.347Z,36.20
2022-08-28T13:29:59.858Z,36.50
2022-08-28T13:32:31.505Z,36.60
2022-08-28T13:35:13.792Z,36.40
2022-08-28T13:37:50.093Z,36.90
2022-08-28T13:40:53.155Z,36.50
2022-08-28T13:43:11.208Z,36.70
2022-08-28T13:45:44.725Z,36.30
2022-08-28T13:48:17.477Z,36.40
2022-08-28T13:50:48.006Z,36.70
2022-08-28T13:53:18.107Z,35.50
2022-08-28T13:55:45.644Z,35.30
2022-08-28T13:58:14.105Z,35.10
2022-08-28T14:00:47.969Z,35.20
2022-08-28T14:03:34.434Z,34.90
2022-08-28T14:06:12.385Z,34.90
2022-08-28T14:08:41.198Z,35.20
2022-08-28T14:11:12.771Z,35.00
2022-08-28T14:13:47.278Z,34.70
2022-08-28T14:16:23.213Z,34.90
2022-08-28T14:18:53.157Z,35.30
2022-08-28T14:21:20.627Z,35.50
2022-08-28T14:23:47.537Z,36.20
2022-08-28T14:26:14.483Z,35.60
2022-08-28T14:28:42.410Z,34.50
2022-08-28T14:31:14.234Z,34.60
2022-08-28T14:33:42.453Z,35.60
2022-08-28T14:36:24.320Z,36.30
2022-08-28T14:38:54.203Z,36.20
2022-08-28T14:41:23.097Z,36.20
2022-08-28T14:43:50.217Z,36.30
2022-08-28T14:46:28.081Z,36.70
2022-08-28T14:49:04.936Z,37.00
2022-08-28T14:51:34.217Z,36.40
2022-08-28T14:54:02.139Z,35.00
2022-08-28T14:56:31.075Z,34.80
2022-08-28T14:59:00.349Z,33.80
2022-08-28T15:01:39.853Z,33.10
2022-08-28T15:04:11.410Z,33.00
2022-08-28T15:06:38.541Z,33.40
2022-08-28T15:09:05.740Z,33.40
2022-08-28T15:11:32.975Z,33.60
2022-08-28T15:13:59.903Z,33.30
2022-08-28T15:16:32.937Z,33.20
2022-08-28T15:19:00.697Z,33.30
2022-08-28T15:21:33.775Z,32.60
2022-08-28T15:24:03.299Z,31.90
2022-08-28T15:26:31.304Z,31.60
2022-08-28T15:29:02.488Z,31.30
2022-08-28T15:31:34.981Z,31.00
2022-08-28T15:34:06.519Z,30.90
2022-08-28T15:36:41.367Z,30.80
2022-08-28T15:39:28.223Z,30.50
2022-08-28T15:41:55.910Z,30.30
2022-08-28T15:44:23.043Z,30.20
2022-08-28T15:46:58.871Z,30.00
2022-08-28T15:49:28.409Z,30.00
2022-08-28T15:51:56.628Z,30.00
2022-08-28T15:54:24.243Z,29.90
2022-08-28T15:56:53.783Z,29.80
2022-08-28T15:59:21.812Z,29.70
2022-08-28T16:04:18.970Z,29.50
2022-08-28T16:06:46.111Z,29.40
2022-08-28T16:09:14.560Z,29.40
2022-08-28T16:11:43.920Z,29.30
2022-08-28T16:14:11.896Z,29.30
2022-08-28T16:16:39.718Z,29.10
2022-08-28T16:19:13.511Z,29.00
2022-08-28T16:21:40.653Z,29.00
2022-08-28T16:24:07.650Z,28.80
2022-08-28T16:26:34.766Z,28.90
2022-08-28T16:29:01.745Z,28.80
2022-08-28T16:31:28.684Z,28.60
2022-08-28T16:33:57.017Z,28.50
2022-08-28T16:36:25.309Z,28.50
2022-08-28T16:39:00.561Z,28.50
2022-08-28T16:41:31.965Z,28.40
2022-08-28T16:43:59.290Z,28.40
2022-08-28T16:46:27.647Z,28.30
2022-08-28T16:48:54.921Z,28.10
2022-08-28T16:51:26.973Z,28.00
2022-08-28T16:53:54.978Z,28.00
2022-08-28T16:56:23.701Z,28.00
2022-08-28T16:58:53.075Z,27.90
2022-08-28T17:01:24.150Z,27.90
2022-08-28T17:03:52.727Z,27.80
2022-08-28T17:06:26.947Z,27.80
2022-08-28T17:08:56.845Z,27.70
2022-08-28T17:11:26.141Z,27.60
2022-08-28T17:13:53.296Z,27.60
2022-08-28T17:16:21.976Z,27.50
2022-08-28T17:18:52.233Z,27.40
2022-08-28T17:21:39.953Z,27.30
2022-08-28T17:24:08.087Z,27.30
2022-08-28T17:26:35.160Z,27.20
2022-08-28T17:29:02.929Z,27.00
2022-08-28T17:33:57.775Z,26.90
2022-08-28T17:36:32.435Z,26.60
2022-08-28T17:39:07.365Z,26.80
2022-08-28T17:41:34.352Z,26.90
2022-08-28T17:44:02.568Z,26.80
2022-08-28T17:49:04.960Z,26.70
2022-08-28T17:54:18.456Z,26.60
2022-08-28T17:59:15.247Z,26.50
2022-08-28T18:01:43.286Z,26.50
2022-08-28T18:04:11.044Z,26.40
2022-08-28T18:09:09.614Z,26.20
2022-08-28T18:11:37.926Z,26.10
2022-08-28T18:14:05.336Z,26.10
2022-08-28T18:16:33.882Z,25.90
2022-08-28T18:19:02.053Z,25.90
2022-08-28T18:21:29.213Z,25.80
2022-08-28T18:26:23.623Z,25.90
2022-08-28T18:28:51.212Z,25.80
2022-08-28T18:31:18.792Z,25.80
2022-08-28T18:36:15.080Z,25.50
2022-08-28T18:38:43.761Z,25.50
2022-08-28T18:41:12.318Z,25.40
2022-08-28T18:43:39.615Z,25.30
2022-08-28T18:46:09.259Z,25.30
2022-08-28T18:48:37.292Z,25.20
2022-08-28T18:51:07.737Z,25.20
2022-08-28T18:53:35.547Z,25.20
2022-08-28T18:56:02.764Z,25.20
2022-08-28T18:58:32.178Z,25.00
2022-08-28T19:01:01.123Z,25.00
2022-08-28T19:03:28.938Z,24.90
2022-08-28T19:08:25.333Z,24.50
2022-08-28T19:13:20.489Z,24.60
2022-08-28T19:15:52.819Z,24.60
2022-08-28T19:20:47.573Z,24.50
2022-08-28T19:23:17.903Z,24.40
2022-08-28T19:25:45.897Z,24.30
2022-08-28T19:28:13.886Z,24.30
2022-08-28T19:30:41.167Z,24.30
2022-08-28T19:33:08.281Z,24.30
2022-08-28T19:35:35.469Z,24.20
2022-08-28T19:38:02.357Z,24.20
2022-08-28T19:40:29.382Z,24.10
2022-08-28T19:42:56.523Z,24.00
2022-08-28T19:47:52.390Z,24.00
2022-08-28T19:50:20.210Z,24.00
2022-08-28T19:52:47.596Z,24.10
2022-08-28T19:55:26.037Z,23.80
2022-08-28T19:57:53.388Z,23.80
2022-08-28T20:00:28.550Z,23.60
2022-08-28T20:02:56.232Z,23.60
2022-08-28T20:05:24.012Z,23.60
2022-08-28T20:07:51.824Z,23.60
2022-08-28T20:10:19.566Z,23.60
2022-08-28T20:12:48.585Z,23.50
2022-08-28T20:15:17.735Z,23.50
2022-08-28T20:17:49.352Z,23.50
2022-08-28T20:20:19.286Z,23.40
2022-08-28T20:25:15.613Z,23.10
2022-08-28T20:27:42.606Z,23.10
2022-08-28T20:30:11.261Z,23.10
2022-08-28T20:32:40.864Z,23.10
2022-08-28T20:35:10.651Z,22.90
2022-08-28T20:37:44.672Z,22.60
2022-08-28T20:40:19.000Z,22.50
2022-08-28T20:42:46.526Z,23.00
2022-08-28T20:45:15.174Z,22.60
2022-08-28T20:47:42.462Z,22.70
2022-08-28T20:50:09.952Z,22.60
2022-08-28T20:55:07.946Z,22.50
2022-08-28T20:57:36.034Z,22.60
2022-08-28T21:00:08.908Z,22.60
2022-08-28T21:02:37.109Z,22.50
2022-08-28T21:05:04.901Z,22.60
2022-08-28T21:07:34.123Z,22.50
2022-08-28T21:10:04.183Z,22.50
2022-08-28T21:12:33.798Z,22.50
2022-08-28T21:15:00.913Z,22.50
2022-08-28T21:17:29.012Z,22.30
2022-08-28T21:20:00.378Z,22.30
2022-08-28T21:22:27.481Z,22.40
2022-08-28T21:27:21.951Z,22.20
2022-08-28T21:29:48.812Z,22.20
2022-08-28T21:32:16.770Z,22.20
2022-08-28T21:34:43.910Z,22.20
2022-08-28T21:37:10.850Z,22.10
2022-08-28T21:39:37.912Z,22.30
2022-08-28T21:44:32.644Z,22.00
2022-08-28T21:46:59.676Z,21.50
2022-08-28T21:49:26.589Z,21.90
2022-08-28T21:51:53.483Z,22.00
2022-08-28T21:56:48.092Z,22.00
2022-08-28T21:59:17.473Z,21.80
2022-08-28T22:01:44.715Z,21.50
2022-08-28T22:04:11.944Z,21.80
2022-08-28T22:06:40.498Z,21.80
2022-08-28T22:09:08.957Z,21.80
2022-08-28T22:11:36.462Z,21.80
2022-08-28T22:16:31.607Z,21.80
2022-08-28T22:18:59.048Z,21.60
2022-08-28T22:21:45.949Z,21.70
2022-08-28T22:24:13.410Z,21.40
2022-08-28T22:26:42.022Z,21.50
2022-08-28T22:29:09.861Z,21.10
2022-08-28T22:31:39.677Z,21.60
2022-08-28T22:34:13.270Z,21.30
2022-08-28T22:36:40.249Z,21.50
2022-08-28T22:41:37.482Z,20.90
2022-08-28T22:46:31.878Z,21.40
2022-08-28T22:48:59.323Z,21.50
2022-08-28T22:51:26.266Z,21.30
2022-08-28T22:53:54.399Z,21.20
2022-08-28T23:01:20.687Z,21.00
2022-08-28T23:03:48.338Z,21.00
2022-08-28T23:06:15.968Z,20.90
2022-08-28T23:08:43.394Z,21.10
2022-08-28T23:11:10.831Z,20.80
2022-08-28T23:13:38.886Z,20.50
2022-08-28T23:16:07.180Z,20.90
2022-08-28T23:18:51.687Z,20.90
2022-08-28T23:21:23.877Z,20.70
2022-08-28T23:26:21.447Z,20.60
2022-08-28T23:28:48.408Z,20.50
2022-08-28T23:31:15.418Z,20.50
2022-08-28T23:33:42.752Z,20.20
2022-08-28T23:38:40.685Z,19.60
2022-08-28T23:41:11.307Z,19.70
2022-08-28T23:43:38.653Z,20.00
2022-08-28T23:48:33.732Z,19.50
2022-08-28T23:53:30.630Z,19.50
2022-08-28T23:55:59.602Z,19.00
2022-08-28T23:58:31.853Z,19.40
